Home   Weather   Sweden   Malmö   Past weeks
Flag for Sweden

Past Weather in Malmö, Sweden — Yesterday and Last 2 Weeks

Currently: 52 °F. Scattered clouds. (Weather station: Malmo / Sturup, Sweden). See more current weather

Past Weather in Malmö — Graph

°F

Malmö Temperature Yesterday

Maximum temperature yesterday: 54 °F (at 1:20 pm)
Minimum temperature yesterday: 34 °F (at 12:50 am)
Average temperature yesterday: 44 °F

High & Low Weather Summary for the Past Weeks

 TemperatureHumidityPressure
High59 °F (Oct 20, 2:20 am)100% (Oct 11, 3:50 am)30.39 "Hg (Oct 11, 3:50 am)
Low32 °F (Oct 13, 4:50 am)47% (Oct 23, 1:20 pm)28.82 "Hg (Oct 21, 10:50 am)
Average48 °F83%29.88 "Hg
* Reported Oct 10 12:20 pm — Oct 25 12:20 pm, Malmö. Weather by CustomWeather, © 2021

Note: Actual official high and low records may vary slightly from our data, if they occured in-between our weather recording intervals... More about our weather records

Malmö Weather History for the Previous 24 Hours

Scroll right to see more
 ConditionsComfort  
Time TempWeatherWind HumidityBarometerVisibility
12:20 pm
Mon, Oct 25
52 °FPassing clouds.9 mph82%30.04 "HgN/A
11:50 am50 °FSunny.10 mph82%30.04 "Hg10 mi
11:20 am50 °FPassing clouds.10 mph82%30.04 "HgN/A
10:50 am48 °FPassing clouds.8 mph87%30.04 "HgN/A
10:20 am48 °FPassing clouds.6 mph94%30.04 "HgN/A
9:50 am45 °FScattered clouds.6 mph93%30.04 "HgN/A
9:20 am41 °FScattered clouds.5 mph93%30.04 "HgN/A
8:50 am39 °FSunny.5 mph100%30.04 "Hg10 mi
8:20 am37 °FSunny.5 mph100%30.04 "Hg10 mi
7:50 am41 °FClear.6 mph93%30.04 "Hg10 mi
7:20 am41 °FClear.6 mph93%30.04 "Hg10 mi
6:50 am39 °FClear.5 mph93%30.07 "Hg10 mi
6:20 am39 °FClear.3 mph93%30.07 "Hg10 mi
5:50 am41 °FClear.5 mph93%30.07 "Hg10 mi
5:20 am39 °FClear.5 mph93%30.07 "Hg10 mi
4:50 am39 °FClear.7 mph100%30.07 "Hg10 mi
4:20 am39 °FClear.7 mph93%30.09 "Hg10 mi
3:50 am41 °FClear.6 mph93%30.09 "Hg10 mi
3:20 am41 °FClear.6 mph87%30.12 "Hg10 mi
2:50 am41 °FClear.7 mph87%30.12 "Hg10 mi
2:20 am41 °FClear.10 mph93%30.12 "Hg10 mi
1:50 am41 °FQuite cool.9 mph93%30.12 "HgN/A
1:20 am43 °FQuite cool.10 mph87%30.12 "HgN/A
12:50 am43 °FClear.10 mph87%30.15 "HgN/A
12:20 am43 °FQuite cool.9 mph87%30.15 "HgN/A
11:20 pm
Sun, Oct 24
43 °FClear.9 mph87%30.18 "Hg10 mi
10:50 pm45 °FClear.9 mph81%30.18 "Hg10 mi
10:20 pm45 °FClear.10 mph87%30.18 "Hg10 mi
9:50 pm45 °FClear.10 mph81%30.18 "Hg10 mi
9:20 pm45 °FClear.10 mph81%30.18 "Hg10 mi
8:50 pm45 °FPassing clouds.9 mph81%30.21 "HgN/A
8:20 pm46 °FPassing clouds.12 mph82%30.21 "HgN/A
7:50 pm43 °FPassing clouds.8 mph87%30.24 "HgN/A
7:20 pm43 °FPassing clouds.7 mph87%30.24 "HgN/A
6:50 pm43 °FPassing clouds.8 mph81%30.24 "HgN/A
6:20 pm41 °FClear.8 mph87%30.24 "Hg10 mi
5:50 pm43 °FPassing clouds.7 mph76%30.24 "HgN/A
5:20 pm48 °FSunny.8 mph71%30.27 "Hg10 mi
4:50 pm50 °FSunny.12 mph67%30.27 "Hg10 mi
4:20 pm50 °FSunny.12 mph67%30.27 "Hg10 mi
3:50 pm52 °FSunny.14 mph67%30.30 "Hg10 mi
3:20 pm52 °FSunny.15 mph58%30.30 "Hg10 mi
2:50 pm52 °FSunny.16 mph62%30.30 "Hg10 mi
2:20 pm52 °FSunny.16 mph62%30.30 "Hg10 mi
1:50 pm54 °FSunny.18 mph63%30.30 "Hg10 mi
1:20 pm54 °FSunny.18 mph63%30.30 "Hg10 mi
Weather by CustomWeather, © 2021

See weather overview